createdAt,value
2022-10-28T00:00:38.414Z,8.03
2022-10-28T00:03:11.104Z,8.45
2022-10-28T00:05:43.519Z,7.45
2022-10-28T00:08:17.284Z,7.58
2022-10-28T00:10:50.648Z,8.43
2022-10-28T00:13:23.320Z,8.10
2022-10-28T00:15:55.778Z,7.78
2022-10-28T00:18:30.780Z,8.00
2022-10-28T00:21:12.424Z,8.40
2022-10-28T00:23:46.140Z,8.35
2022-10-28T00:26:24.752Z,7.85
2022-10-28T00:28:59.755Z,8.05
2022-10-28T00:31:33.077Z,7.67
2022-10-28T00:34:07.150Z,8.03
2022-10-28T00:36:41.754Z,8.45
2022-10-28T00:39:20.029Z,8.00
2022-10-28T00:41:56.293Z,7.92
2022-10-28T00:44:57.125Z,8.58
2022-10-28T00:47:40.684Z,8.73
2022-10-28T00:50:23.483Z,8.58
2022-10-28T00:53:00.117Z,8.13
2022-10-28T00:55:32.588Z,8.45
2022-10-28T00:58:06.607Z,9.75
2022-10-28T01:00:39.177Z,9.00
2022-10-28T01:03:11.708Z,9.23
2022-10-28T01:05:47.652Z,9.53
2022-10-28T01:08:20.199Z,10.00
2022-10-28T01:11:36.616Z,9.35
2022-10-28T01:14:37.725Z,10.05
2022-10-28T01:17:41.826Z,9.45
2022-10-28T01:20:34.956Z,9.40
2022-10-28T01:23:19.396Z,8.90
2022-10-28T01:26:17.599Z,10.00
2022-10-28T01:29:12.492Z,9.30
2022-10-28T01:32:20.395Z,9.23
2022-10-28T01:35:17.115Z,9.28
2022-10-28T01:38:30.807Z,9.75
2022-10-28T01:41:16.223Z,9.10
2022-10-28T01:43:53.596Z,9.15
2022-10-28T01:46:30.131Z,9.48
2022-10-28T01:49:12.802Z,9.15
2022-10-28T01:51:49.033Z,9.15
2022-10-28T01:54:25.340Z,8.93
2022-10-28T01:56:57.781Z,10.05
2022-10-28T01:59:31.572Z,8.83
2022-10-28T02:02:04.185Z,8.48
2022-10-28T02:04:36.837Z,8.90
2022-10-28T02:07:09.259Z,8.70
2022-10-28T02:10:13.761Z,9.63
2022-10-28T02:12:46.197Z,9.83
2022-10-28T02:15:45.086Z,9.10
2022-10-28T02:18:56.889Z,9.25
2022-10-28T02:21:40.002Z,8.75
2022-10-28T02:24:22.955Z,8.93
2022-10-28T02:27:00.176Z,8.55
2022-10-28T02:29:44.985Z,8.48
2022-10-28T02:32:21.234Z,8.28
2022-10-28T02:34:56.537Z,9.10
2022-10-28T02:37:32.466Z,8.60
2022-10-28T02:40:07.982Z,8.58
2022-10-28T02:42:50.562Z,9.10
2022-10-28T02:45:28.174Z,9.90
2022-10-28T02:48:05.691Z,10.23
2022-10-28T02:50:41.145Z,9.08
2022-10-28T02:53:20.740Z,8.95
2022-10-28T02:55:55.973Z,9.93
2022-10-28T02:58:29.089Z,9.25
2022-10-28T03:01:01.859Z,10.00
2022-10-28T03:03:34.766Z,10.13
2022-10-28T03:06:07.399Z,10.18
2022-10-28T03:08:41.104Z,9.23
2022-10-28T03:11:14.912Z,9.53
2022-10-28T03:13:47.516Z,9.78
2022-10-28T03:16:20.041Z,9.50
2022-10-28T03:18:52.478Z,9.13
2022-10-28T03:21:26.586Z,10.28
2022-10-28T03:23:59.054Z,10.38
2022-10-28T03:26:31.567Z,10.82
2022-10-28T03:29:04.649Z,10.38
2022-10-28T03:31:38.112Z,9.80
2022-10-28T03:34:10.790Z,10.40
2022-10-28T03:36:43.473Z,9.75
2022-10-28T03:39:16.355Z,11.05
2022-10-28T03:41:49.027Z,10.65
2022-10-28T03:44:21.604Z,10.45
2022-10-28T03:46:54.666Z,10.80
2022-10-28T03:49:27.415Z,10.15
2022-10-28T03:51:59.921Z,10.43
2022-10-28T03:54:32.742Z,10.10
2022-10-28T03:57:05.081Z,10.60
2022-10-28T03:59:38.200Z,11.30
2022-10-28T04:02:10.758Z,10.75
2022-10-28T04:04:45.087Z,10.93
2022-10-28T04:07:17.420Z,10.93
2022-10-28T04:09:51.654Z,11.18
2022-10-28T04:12:24.582Z,10.57
2022-10-28T04:14:57.043Z,10.85
2022-10-28T04:17:30.310Z,11.85
2022-10-28T04:20:02.935Z,10.35
2022-10-28T04:22:35.621Z,10.70
2022-10-28T04:25:08.979Z,10.65
2022-10-28T04:27:41.397Z,9.95
2022-10-28T04:30:14.596Z,10.82
2022-10-28T04:32:47.236Z,10.60
2022-10-28T04:35:20.253Z,10.32
2022-10-28T04:37:53.015Z,12.53
2022-10-28T04:40:26.405Z,11.73
2022-10-28T04:42:59.079Z,10.95
2022-10-28T04:45:32.438Z,10.82
2022-10-28T04:48:05.350Z,11.28
2022-10-28T04:50:38.205Z,11.28
2022-10-28T04:53:13.842Z,10.63
2022-10-28T04:55:46.214Z,10.88
2022-10-28T04:58:19.798Z,12.28
2022-10-28T05:00:52.438Z,10.85
2022-10-28T05:03:24.925Z,13.13
2022-10-28T05:05:58.147Z,12.65
2022-10-28T05:08:30.881Z,12.58
2022-10-28T05:11:03.221Z,12.23
2022-10-28T05:13:36.354Z,14.25
2022-10-28T05:16:10.011Z,13.43
2022-10-28T05:18:42.658Z,13.45
2022-10-28T05:21:15.726Z,13.22
2022-10-28T05:23:49.176Z,13.43
2022-10-28T05:26:21.627Z,13.88
2022-10-28T05:28:54.614Z,12.98
2022-10-28T05:31:27.660Z,12.82
2022-10-28T05:34:01.159Z,11.63
2022-10-28T05:36:34.126Z,12.15
2022-10-28T05:39:06.831Z,12.55
2022-10-28T05:41:39.368Z,12.47
2022-10-28T05:44:11.849Z,12.30
2022-10-28T05:46:44.531Z,12.05
2022-10-28T05:49:19.128Z,13.05
2022-10-28T05:51:51.567Z,12.37
2022-10-28T05:54:24.909Z,12.65
2022-10-28T05:56:57.571Z,12.93
2022-10-28T05:59:30.318Z,13.28
2022-10-28T06:02:02.757Z,13.43
2022-10-28T06:04:35.483Z,13.32
2022-10-28T06:07:08.629Z,13.38
2022-10-28T06:09:41.148Z,13.05
2022-10-28T06:12:12.699Z,12.68
2022-10-28T06:14:45.864Z,12.55
2022-10-28T06:17:19.455Z,14.38
2022-10-28T06:19:52.450Z,13.58
2022-10-28T06:22:25.327Z,14.20
2022-10-28T06:24:57.733Z,14.47
2022-10-28T06:27:30.397Z,14.68
2022-10-28T06:30:03.488Z,14.73
2022-10-28T06:32:36.064Z,13.60
2022-10-28T06:35:08.863Z,12.78
2022-10-28T06:37:41.307Z,13.28
2022-10-28T06:40:13.651Z,13.70
2022-10-28T06:42:46.069Z,13.68
2022-10-28T06:45:18.979Z,15.08
2022-10-28T06:48:02.069Z,12.70
2022-10-28T06:50:35.435Z,13.50
2022-10-28T06:53:08.102Z,12.78
2022-10-28T06:55:40.803Z,13.93
2022-10-28T06:58:13.387Z,13.45
2022-10-28T07:00:45.932Z,13.25
2022-10-28T07:03:19.150Z,13.40
2022-10-28T07:05:52.142Z,15.23
2022-10-28T07:08:24.922Z,15.32
2022-10-28T07:10:59.908Z,14.43
2022-10-28T07:13:32.645Z,15.78
2022-10-28T07:16:07.344Z,14.98
2022-10-28T07:18:40.858Z,14.70
2022-10-28T07:21:14.523Z,15.72
2022-10-28T07:23:49.057Z,13.90
2022-10-28T07:26:21.737Z,13.98
2022-10-28T07:28:54.178Z,15.38
2022-10-28T07:31:28.182Z,15.03
2022-10-28T07:34:00.589Z,15.23
2022-10-28T07:36:33.359Z,15.38
2022-10-28T07:39:05.815Z,14.38
2022-10-28T07:41:39.356Z,14.28
2022-10-28T07:44:11.798Z,13.28
2022-10-28T07:46:45.358Z,13.53
2022-10-28T07:49:18.248Z,15.65
2022-10-28T07:51:52.384Z,14.87
2022-10-28T07:54:25.127Z,15.15
2022-10-28T07:56:57.753Z,13.68
2022-10-28T07:59:30.584Z,14.47
2022-10-28T08:02:03.634Z,14.25
2022-10-28T08:04:36.899Z,14.83
2022-10-28T08:07:11.042Z,16.07
2022-10-28T08:09:44.264Z,14.78
2022-10-28T08:12:17.108Z,15.03
2022-10-28T08:14:49.554Z,14.83
2022-10-28T08:17:23.567Z,13.80
2022-10-28T08:19:56.591Z,14.60
2022-10-28T08:22:29.025Z,16.17
2022-10-28T08:25:02.755Z,16.57
2022-10-28T08:27:35.450Z,16.45
2022-10-28T08:30:36.566Z,15.43
2022-10-28T08:33:03.834Z,15.38
2022-10-28T08:35:36.715Z,15.28
2022-10-28T08:38:29.212Z,14.40
2022-10-28T08:41:39.055Z,12.73
2022-10-28T08:45:00.149Z,13.15
2022-10-28T08:48:08.729Z,14.00
2022-10-28T09:16:47.828Z,9.33
2022-10-28T09:22:48.781Z,7.80
2022-10-28T09:25:40.369Z,7.78
2022-10-28T09:28:47.178Z,6.25
2022-10-28T09:31:53.659Z,4.60
2022-10-28T09:34:49.942Z,5.00
2022-10-28T09:37:35.804Z,3.90
2022-10-28T09:40:22.231Z,4.00
2022-10-28T09:43:23.634Z,2.83
2022-10-28T09:46:01.063Z,2.90
2022-10-28T09:48:42.470Z,2.42
2022-10-28T09:51:28.307Z,1.80
2022-10-28T09:54:19.612Z,1.75
2022-10-28T09:56:52.624Z,2.62
2022-10-28T09:59:25.242Z,3.45
2022-10-28T10:01:57.981Z,3.37
2022-10-28T10:04:35.924Z,3.33
2022-10-28T10:07:11.934Z,3.25
2022-10-28T10:09:46.154Z,3.85
2022-10-28T10:12:18.585Z,4.50
2022-10-28T10:15:13.738Z,4.75
2022-10-28T10:17:47.276Z,4.30
2022-10-28T10:20:22.110Z,4.08
2022-10-28T10:22:55.755Z,3.75
2022-10-28T10:25:31.280Z,3.47
2022-10-28T10:28:16.213Z,3.50
2022-10-28T10:30:52.523Z,3.72
2022-10-28T10:33:38.642Z,3.75
2022-10-28T10:36:15.936Z,3.00
2022-10-28T10:39:13.633Z,3.35
2022-10-28T10:41:47.886Z,3.27
2022-10-28T10:44:32.175Z,3.75
2022-10-28T10:47:10.526Z,3.60
2022-10-28T10:52:51.270Z,3.10
2022-10-28T10:55:31.019Z,3.33
2022-10-28T10:58:03.692Z,3.22
2022-10-28T11:00:39.193Z,3.27
2022-10-28T11:03:16.835Z,2.65
2022-10-28T11:06:18.365Z,3.10
2022-10-28T11:08:44.311Z,2.47
2022-10-28T11:11:22.577Z,2.55
2022-10-28T11:14:07.268Z,3.22
2022-10-28T11:16:56.434Z,2.60
2022-10-28T11:19:35.007Z,2.40
2022-10-28T11:22:15.684Z,2.55
2022-10-28T11:25:38.726Z,1.95
2022-10-28T11:28:40.099Z,3.10
2022-10-28T11:31:51.204Z,2.95
2022-10-28T11:34:46.838Z,3.00
2022-10-28T11:37:44.867Z,2.77
2022-10-28T11:40:53.956Z,2.80
2022-10-28T11:43:48.668Z,2.80
2022-10-28T11:47:08.690Z,4.80
2022-10-28T11:50:05.431Z,2.60
2022-10-28T11:52:57.625Z,2.90
2022-10-28T11:55:45.636Z,2.85
2022-10-28T11:58:46.663Z,2.60
2022-10-28T12:01:46.671Z,3.02
2022-10-28T12:05:06.638Z,2.72
2022-10-28T12:08:05.469Z,2.55
2022-10-28T12:11:15.880Z,2.83
2022-10-28T12:16:52.517Z,3.17
2022-10-28T12:19:49.982Z,3.30
2022-10-28T12:22:39.428Z,3.05
2022-10-28T12:25:34.437Z,2.80
2022-10-28T12:28:24.769Z,3.00
2022-10-28T12:30:57.574Z,3.22
2022-10-28T12:33:45.600Z,3.50
2022-10-28T12:36:37.770Z,3.37
2022-10-28T12:39:38.643Z,3.83
2022-10-28T12:42:33.547Z,4.20
2022-10-28T12:45:15.225Z,3.40
2022-10-28T12:48:18.244Z,3.25
2022-10-28T12:51:07.977Z,3.00
2022-10-28T12:54:12.117Z,3.45
2022-10-28T12:56:55.591Z,3.30
2022-10-28T12:59:38.279Z,3.65
2022-10-28T13:02:25.188Z,3.52
2022-10-28T13:04:58.977Z,3.08
2022-10-28T13:08:26.421Z,5.03
2022-10-28T13:11:41.921Z,3.95
2022-10-28T13:14:44.823Z,3.50
2022-10-28T13:17:50.379Z,3.90
2022-10-28T13:20:33.617Z,4.12
2022-10-28T13:23:35.045Z,4.00
2022-10-28T13:26:32.216Z,5.75
2022-10-28T13:29:07.550Z,4.53
2022-10-28T13:31:45.419Z,4.05
2022-10-28T13:34:20.272Z,4.17
2022-10-28T13:36:59.570Z,4.85
2022-10-28T13:39:45.179Z,4.87
2022-10-28T13:42:24.101Z,4.78
2022-10-28T13:45:04.089Z,5.70
2022-10-28T13:47:37.964Z,4.95
2022-10-28T13:50:16.764Z,5.12
2022-10-28T13:52:53.525Z,4.97
2022-10-28T13:55:43.146Z,4.85
2022-10-28T13:58:25.792Z,4.40
2022-10-28T14:00:58.371Z,5.12
2022-10-28T14:03:32.573Z,5.17
2022-10-28T14:06:05.317Z,4.92
2022-10-28T14:08:42.847Z,4.75
2022-10-28T14:11:24.446Z,5.08
2022-10-28T14:14:02.612Z,4.75
2022-10-28T14:16:44.209Z,6.10
2022-10-28T14:19:19.954Z,5.40
2022-10-28T14:22:06.193Z,4.70
2022-10-28T14:24:41.015Z,5.20
2022-10-28T14:27:36.538Z,5.22
2022-10-28T14:30:22.658Z,4.95
2022-10-28T14:33:21.919Z,5.83
2022-10-28T14:35:56.525Z,5.85
2022-10-28T14:41:33.147Z,6.05
2022-10-28T14:44:43.803Z,5.35
2022-10-28T14:47:39.632Z,6.33
2022-10-28T14:50:26.771Z,5.80
2022-10-28T14:52:59.159Z,6.87
2022-10-28T14:55:34.917Z,6.00
2022-10-28T14:58:30.042Z,6.62
2022-10-28T15:01:07.856Z,6.47
2022-10-28T15:03:41.094Z,6.87
2022-10-28T15:06:39.498Z,6.60
2022-10-28T15:09:25.577Z,6.50
2022-10-28T15:12:09.877Z,7.65
2022-10-28T15:14:45.448Z,6.80
2022-10-28T15:17:24.140Z,6.67
2022-10-28T15:20:00.398Z,7.15
2022-10-28T15:22:34.307Z,6.78
2022-10-28T15:25:16.250Z,6.95
2022-10-28T15:27:54.427Z,6.65
2022-10-28T15:30:27.825Z,7.80
2022-10-28T15:33:30.944Z,7.92
2022-10-28T15:36:27.973Z,8.10
2022-10-28T15:39:08.887Z,8.15
2022-10-28T15:41:43.724Z,7.97
2022-10-28T15:44:35.857Z,9.70
2022-10-28T15:47:32.098Z,8.45
2022-10-28T15:50:19.270Z,8.98
2022-10-28T15:52:57.468Z,8.43
2022-10-28T15:56:06.933Z,9.05
2022-10-28T15:58:30.235Z,10.13
2022-10-28T16:01:03.129Z,9.33
2022-10-28T16:03:45.958Z,9.20
2022-10-28T16:06:31.848Z,8.60
2022-10-28T16:09:09.455Z,9.20
2022-10-28T16:11:48.103Z,9.03
2022-10-28T16:14:39.452Z,9.90
2022-10-28T16:17:29.819Z,9.93
2022-10-28T16:20:21.980Z,9.70
2022-10-28T16:22:54.532Z,10.78
2022-10-28T16:25:28.925Z,9.98
2022-10-28T16:28:02.151Z,10.50
2022-10-28T16:30:34.916Z,10.03
2022-10-28T16:33:09.366Z,11.20
2022-10-28T16:35:42.294Z,11.75
2022-10-28T16:38:15.412Z,11.43
2022-10-28T16:40:52.001Z,11.73
2022-10-28T16:46:01.128Z,11.30
2022-10-28T16:48:33.860Z,11.55
2022-10-28T16:51:15.520Z,11.95
2022-10-28T16:53:50.390Z,12.47
2022-10-28T16:56:23.095Z,12.75
2022-10-28T16:58:56.759Z,12.60
2022-10-28T17:01:29.647Z,12.35
2022-10-28T17:04:04.036Z,13.10
2022-10-28T17:06:36.859Z,13.05
2022-10-28T17:09:19.469Z,12.88
2022-10-28T17:11:51.809Z,12.53
2022-10-28T17:14:24.861Z,12.18
2022-10-28T17:16:58.035Z,42.08
2022-10-28T17:19:31.194Z,16.30
2022-10-28T17:22:08.971Z,13.65
2022-10-28T17:24:40.217Z,13.20
2022-10-28T17:27:13.041Z,13.43
2022-10-28T17:29:45.823Z,13.22
2022-10-28T17:32:18.987Z,13.32
2022-10-28T17:34:52.449Z,14.53
2022-10-28T17:37:25.511Z,12.80
2022-10-28T17:39:58.049Z,14.33
2022-10-28T17:42:31.065Z,14.13
2022-10-28T17:45:03.818Z,12.90
2022-10-28T17:47:36.914Z,14.93
2022-10-28T17:50:11.097Z,14.63
2022-10-28T17:52:43.661Z,14.05
2022-10-28T17:55:16.733Z,15.23
2022-10-28T17:57:50.215Z,14.45
2022-10-28T18:00:22.722Z,14.63
2022-10-28T18:02:58.581Z,14.30
2022-10-28T18:05:31.134Z,15.23
2022-10-28T18:08:03.814Z,15.72
2022-10-28T18:10:36.409Z,15.72
2022-10-28T18:13:09.301Z,16.23
2022-10-28T18:15:41.924Z,15.98
2022-10-28T18:18:14.989Z,15.55
2022-10-28T18:20:55.674Z,14.55
